createdAt,value
2023-02-06T00:00:02.704Z,3.30
2023-02-06T00:03:03.877Z,3.33
2023-02-06T00:05:44.800Z,3.83
2023-02-06T00:08:11.994Z,3.60
2023-02-06T00:10:39.329Z,3.72
2023-02-06T00:13:06.580Z,3.42
2023-02-06T00:15:34.259Z,3.60
2023-02-06T00:18:01.698Z,3.42
2023-02-06T00:20:29.059Z,4.65
2023-02-06T00:22:56.238Z,3.50
2023-02-06T00:25:43.945Z,3.60
2023-02-06T00:28:30.583Z,4.47
2023-02-06T00:31:22.033Z,3.92
2023-02-06T00:34:03.928Z,4.10
2023-02-06T00:36:31.023Z,4.00
2023-02-06T00:38:58.680Z,3.15
2023-02-06T00:41:25.918Z,3.63
2023-02-06T00:43:53.288Z,3.78
2023-02-06T00:46:41.033Z,4.72
2023-02-06T00:49:21.775Z,3.53
2023-02-06T00:51:51.488Z,4.55
2023-02-06T00:54:20.888Z,4.28
2023-02-06T00:57:08.005Z,4.70
2023-02-06T00:59:48.812Z,4.22
2023-02-06T01:02:35.941Z,3.67
2023-02-06T01:05:37.289Z,4.00
2023-02-06T01:08:17.425Z,4.00
2023-02-06T01:10:45.145Z,3.53
2023-02-06T01:13:12.337Z,4.78
2023-02-06T01:15:43.853Z,3.78
2023-02-06T01:18:11.243Z,3.75
2023-02-06T01:20:41.434Z,3.17
2023-02-06T01:23:28.891Z,5.05
2023-02-06T01:26:31.960Z,4.32
2023-02-06T01:29:32.969Z,4.97
2023-02-06T01:32:05.628Z,3.67
2023-02-06T01:34:32.725Z,4.20
2023-02-06T01:37:01.851Z,4.45
2023-02-06T01:39:29.082Z,4.00
2023-02-06T01:42:17.863Z,4.85
2023-02-06T01:45:27.463Z,5.20
2023-02-06T01:47:59.487Z,4.13
2023-02-06T01:50:27.561Z,4.22
2023-02-06T01:52:55.173Z,5.35
2023-02-06T01:55:43.903Z,4.30
2023-02-06T01:58:30.032Z,4.93
2023-02-06T02:00:59.379Z,5.13
2023-02-06T02:03:29.122Z,4.75
2023-02-06T02:06:07.539Z,5.85
2023-02-06T02:08:39.494Z,7.50
2023-02-06T02:11:09.310Z,4.70
2023-02-06T02:13:57.963Z,5.40
2023-02-06T02:17:27.971Z,5.07
2023-02-06T02:20:11.436Z,4.90
2023-02-06T02:23:09.945Z,5.28
2023-02-06T02:25:57.012Z,5.43
2023-02-06T02:28:50.012Z,5.63
2023-02-06T02:31:30.295Z,7.32
2023-02-06T02:34:06.786Z,6.80
2023-02-06T02:36:44.905Z,4.60
2023-02-06T02:39:35.533Z,5.60
2023-02-06T02:42:15.526Z,6.25
2023-02-06T02:45:04.854Z,5.40
2023-02-06T02:47:41.585Z,4.97
2023-02-06T02:50:30.963Z,6.20
2023-02-06T02:53:13.060Z,5.55
2023-02-06T02:56:00.025Z,5.80
2023-02-06T02:58:44.842Z,5.03
2023-02-06T03:01:17.700Z,5.13
2023-02-06T03:03:48.654Z,7.25
2023-02-06T03:06:34.373Z,7.25
2023-02-06T03:09:32.278Z,5.45
2023-02-06T03:12:24.977Z,6.80
2023-02-06T03:15:00.139Z,5.32
2023-02-06T03:17:38.430Z,4.57
2023-02-06T03:20:27.066Z,6.65
2023-02-06T03:23:37.456Z,5.22
2023-02-06T03:26:40.998Z,4.97
2023-02-06T03:29:21.908Z,5.18
2023-02-06T03:32:15.671Z,5.40
2023-02-06T03:34:54.002Z,5.93
2023-02-06T03:37:21.984Z,6.95
2023-02-06T03:39:49.345Z,5.38
2023-02-06T03:42:17.970Z,8.38
2023-02-06T03:44:50.600Z,4.97
2023-02-06T03:47:20.308Z,6.57
2023-02-06T03:49:49.579Z,6.88
2023-02-06T03:52:39.919Z,6.28
2023-02-06T03:55:41.054Z,5.50
2023-02-06T03:58:37.454Z,7.25
2023-02-06T04:22:58.919Z,5.65
2023-02-06T04:25:45.954Z,4.68
2023-02-06T04:28:46.938Z,6.63
2023-02-06T04:31:47.938Z,5.47
2023-02-06T04:34:15.925Z,6.57
2023-02-06T04:36:42.913Z,6.03
2023-02-06T04:39:09.841Z,5.63
2023-02-06T04:41:36.722Z,5.25
2023-02-06T04:44:03.668Z,7.75
2023-02-06T04:46:30.616Z,5.88
2023-02-06T04:48:57.499Z,6.47
2023-02-06T04:51:24.392Z,6.50
2023-02-06T04:53:51.300Z,6.38
2023-02-06T04:56:37.954Z,5.47
2023-02-06T04:59:38.941Z,5.95
2023-02-06T05:02:43.999Z,5.72
2023-02-06T05:05:24.563Z,7.05
2023-02-06T05:07:51.515Z,6.75
2023-02-06T05:10:18.704Z,7.38
2023-02-06T05:12:47.099Z,6.55
2023-02-06T05:15:14.422Z,6.38
2023-02-06T05:17:41.289Z,6.72
2023-02-06T05:20:08.843Z,6.03
2023-02-06T05:22:35.997Z,6.63
2023-02-06T05:25:02.935Z,7.50
2023-02-06T05:27:49.990Z,6.97
2023-02-06T05:30:51.047Z,6.93
2023-02-06T05:33:52.427Z,7.03
2023-02-06T05:36:33.659Z,6.97
2023-02-06T05:39:00.626Z,5.18
2023-02-06T05:41:27.573Z,5.93
2023-02-06T05:43:54.422Z,6.55
2023-02-06T05:46:21.553Z,7.22
2023-02-06T05:48:48.413Z,5.47
2023-02-06T05:51:15.973Z,6.63
2023-02-06T05:53:42.850Z,7.38
2023-02-06T05:56:30.020Z,6.72
2023-02-06T05:59:31.007Z,7.55
2023-02-06T06:02:32.007Z,8.02
2023-02-06T06:05:03.449Z,7.43
2023-02-06T06:07:30.703Z,6.72
2023-02-06T06:09:58.070Z,6.97
2023-02-06T06:12:27.867Z,7.95
2023-02-06T06:14:54.840Z,7.57
2023-02-06T06:17:21.822Z,8.68
2023-02-06T06:19:48.864Z,6.25
2023-02-06T06:22:16.052Z,7.55
2023-02-06T06:24:43.024Z,9.80
2023-02-06T06:27:30.088Z,10.00
2023-02-06T06:30:11.328Z,8.82
2023-02-06T06:32:38.398Z,7.90
2023-02-06T06:35:26.065Z,8.45
2023-02-06T06:38:27.021Z,7.63
2023-02-06T06:41:08.527Z,6.88
2023-02-06T06:43:56.002Z,7.35
2023-02-06T06:46:36.759Z,7.03
2023-02-06T06:49:04.234Z,8.98
2023-02-06T06:51:52.062Z,8.35
2023-02-06T06:54:32.624Z,8.88
2023-02-06T06:57:20.037Z,7.35
2023-02-06T07:00:21.009Z,6.97
2023-02-06T07:03:22.093Z,5.85
2023-02-06T07:06:03.003Z,7.10
2023-02-06T07:08:30.178Z,9.35
2023-02-06T07:10:58.055Z,7.80
2023-02-06T07:13:25.093Z,8.00
2023-02-06T07:15:52.037Z,7.03
2023-02-06T07:18:39.085Z,6.00
2023-02-06T07:21:32.115Z,8.75
2023-02-06T07:23:59.296Z,7.50
2023-02-06T07:26:46.038Z,6.38
2023-02-06T07:29:47.018Z,7.97
2023-02-06T07:32:27.568Z,7.10
2023-02-06T07:34:54.525Z,7.00
2023-02-06T07:37:21.495Z,9.35
2023-02-06T07:39:48.528Z,12.38
2023-02-06T07:42:15.385Z,19.73
2023-02-06T07:45:02.659Z,30.98
2023-02-06T07:47:29.662Z,29.27
2023-02-06T07:49:56.664Z,27.63
2023-02-06T07:52:23.580Z,18.42
2023-02-06T07:54:50.527Z,16.35
2023-02-06T07:57:37.070Z,12.40
2023-02-06T08:00:38.050Z,7.68
2023-02-06T08:03:39.038Z,9.52
2023-02-06T08:06:23.962Z,11.95
2023-02-06T08:08:53.921Z,12.27
2023-02-06T08:11:23.816Z,10.15
2023-02-06T08:13:51.407Z,7.45
2023-02-06T08:16:21.030Z,9.52
2023-02-06T08:19:08.068Z,8.73
2023-02-06T08:21:49.483Z,8.98
2023-02-06T08:24:16.550Z,8.80
2023-02-06T08:27:04.047Z,10.55
2023-02-06T08:30:06.093Z,9.65
2023-02-06T08:32:46.682Z,10.10
2023-02-06T08:35:34.350Z,11.05
2023-02-06T08:38:14.579Z,8.65
2023-02-06T08:40:41.458Z,9.00
2023-02-06T08:43:28.125Z,7.93
2023-02-06T08:46:08.745Z,10.57
2023-02-06T08:48:35.725Z,8.35
2023-02-06T08:51:24.062Z,10.50
2023-02-06T08:54:08.113Z,10.02
2023-02-06T08:56:55.111Z,10.52
2023-02-06T08:59:56.070Z,9.35
2023-02-06T09:02:36.928Z,9.57
2023-02-06T09:05:04.067Z,9.18
2023-02-06T09:07:31.027Z,9.32
2023-02-06T09:09:58.005Z,10.85
2023-02-06T09:12:25.064Z,10.10
2023-02-06T09:15:12.086Z,9.68
2023-02-06T09:17:52.851Z,7.40
2023-02-06T09:20:20.012Z,9.35
2023-02-06T09:22:46.950Z,7.30
2023-02-06T09:25:14.828Z,8.23
2023-02-06T09:28:02.211Z,8.77
2023-02-06T09:30:42.971Z,7.15
2023-02-06T09:33:10.418Z,8.13
2023-02-06T09:35:38.168Z,8.57
2023-02-06T09:38:05.715Z,6.72
2023-02-06T09:40:35.162Z,7.45
2023-02-06T09:43:03.973Z,7.43
2023-02-06T09:45:33.106Z,8.27
2023-02-06T09:48:21.754Z,8.13
2023-02-06T09:50:48.597Z,7.93
2023-02-06T09:53:33.833Z,8.52
2023-02-06T09:56:44.102Z,5.78
2023-02-06T09:59:56.306Z,6.97
2023-02-06T10:03:00.885Z,6.70
2023-02-06T10:05:46.927Z,6.10
2023-02-06T10:08:23.169Z,6.95
2023-02-06T10:11:00.530Z,6.82
2023-02-06T10:13:58.167Z,8.35
2023-02-06T10:17:09.233Z,7.00
2023-02-06T10:20:34.811Z,7.55
2023-02-06T10:23:22.358Z,6.55
2023-02-06T10:26:25.143Z,7.05
2023-02-06T10:29:34.121Z,7.10
2023-02-06T10:32:47.188Z,6.05
2023-02-06T10:35:39.943Z,5.75
2023-02-06T10:38:22.086Z,7.00
2023-02-06T10:41:09.110Z,6.88
2023-02-06T10:43:46.560Z,6.65
2023-02-06T10:46:20.712Z,5.07
2023-02-06T10:49:15.341Z,6.40
2023-02-06T10:51:47.508Z,7.13
2023-02-06T10:54:27.447Z,6.72
2023-02-06T10:57:14.168Z,5.43
2023-02-06T11:00:00.266Z,5.47
2023-02-06T11:03:13.159Z,6.10
2023-02-06T11:08:49.769Z,7.03
2023-02-06T11:11:42.426Z,7.70
2023-02-06T11:14:36.156Z,6.03
2023-02-06T11:17:20.933Z,5.95
2023-02-06T11:19:51.384Z,5.65
2023-02-06T11:22:28.335Z,6.25
2023-02-06T11:25:01.928Z,5.50
2023-02-06T11:27:50.272Z,5.47
2023-02-06T11:30:49.374Z,5.22
2023-02-06T11:33:31.752Z,5.75
2023-02-06T11:36:00.052Z,4.43
2023-02-06T11:38:29.854Z,4.65
2023-02-06T11:41:03.934Z,5.88
2023-02-06T11:46:11.176Z,5.32
2023-02-06T11:48:41.011Z,4.18
2023-02-06T11:51:09.382Z,5.75
2023-02-06T11:53:37.618Z,4.35
2023-02-06T11:56:34.221Z,4.15
2023-02-06T11:59:22.971Z,5.38
2023-02-06T12:01:50.506Z,3.47
2023-02-06T12:04:24.652Z,4.13
2023-02-06T12:09:56.797Z,4.88
2023-02-06T12:12:50.005Z,5.15
2023-02-06T12:15:48.110Z,5.05
2023-02-06T12:18:43.774Z,5.35
2023-02-06T12:21:56.296Z,5.10
2023-02-06T12:24:43.334Z,5.75
2023-02-06T12:27:40.089Z,4.40
2023-02-06T12:30:26.092Z,4.80
2023-02-06T12:33:03.521Z,4.35
2023-02-06T12:35:41.337Z,6.45
2023-02-06T12:38:21.355Z,4.82
2023-02-06T12:41:00.739Z,4.25
2023-02-06T12:43:29.518Z,5.53
2023-02-06T12:46:15.263Z,4.05
2023-02-06T12:48:57.436Z,4.30
2023-02-06T12:51:30.329Z,5.05
2023-02-06T12:54:37.796Z,5.05
2023-02-06T12:57:36.245Z,4.22
2023-02-06T13:04:52.007Z,5.00
2023-02-06T13:07:54.285Z,4.75
2023-02-06T13:10:37.163Z,4.57
2023-02-06T13:13:05.170Z,3.38
2023-02-06T13:15:54.431Z,3.60
2023-02-06T13:18:35.068Z,3.65
2023-02-06T13:21:29.829Z,3.55
2023-02-06T13:24:02.909Z,4.65
2023-02-06T13:26:51.456Z,3.15
2023-02-06T13:29:28.541Z,4.55
2023-02-06T13:32:10.855Z,4.75
2023-02-06T13:35:27.479Z,5.53
2023-02-06T13:38:23.306Z,3.83
2023-02-06T13:41:28.301Z,3.85
2023-02-06T13:44:18.903Z,4.95
2023-02-06T13:47:23.969Z,4.13
2023-02-06T13:50:32.316Z,5.00
2023-02-06T13:53:51.625Z,5.35
2023-02-06T13:57:01.259Z,5.00
2023-02-06T13:59:46.713Z,5.63
2023-02-06T14:02:22.389Z,6.13
2023-02-06T14:05:14.335Z,4.53
2023-02-06T14:08:38.317Z,4.93
2023-02-06T14:11:34.100Z,5.93
2023-02-06T14:14:39.266Z,5.45
2023-02-06T14:17:30.089Z,7.50
2023-02-06T14:20:05.435Z,4.72
2023-02-06T14:22:42.275Z,5.00
2023-02-06T14:25:14.560Z,4.07
2023-02-06T14:27:59.482Z,4.63
2023-02-06T14:31:29.343Z,4.50
2023-02-06T14:34:30.211Z,4.10
2023-02-06T14:37:06.314Z,5.50
2023-02-06T14:39:43.758Z,5.85
2023-02-06T14:42:40.240Z,5.30
2023-02-06T14:45:41.615Z,3.88
2023-02-06T14:48:18.831Z,3.45
2023-02-06T14:51:10.266Z,5.25
2023-02-06T14:54:01.703Z,4.85
2023-02-06T14:56:52.283Z,7.70
2023-02-06T15:00:04.317Z,8.10
2023-02-06T15:03:40.394Z,22.52
2023-02-06T15:09:26.755Z,22.52
2023-02-06T15:11:59.172Z,15.13
2023-02-06T15:14:48.304Z,5.32
2023-02-06T15:17:49.304Z,3.63
2023-02-06T15:20:40.381Z,5.45
2023-02-06T15:23:18.871Z,4.10
2023-02-06T15:25:52.036Z,6.43
2023-02-06T15:28:23.120Z,5.82
2023-02-06T15:31:12.303Z,5.53
2023-02-06T15:33:55.065Z,7.53
2023-02-06T15:36:29.705Z,8.48
2023-02-06T15:38:58.438Z,6.68
2023-02-06T15:41:28.267Z,5.88
2023-02-06T15:44:01.471Z,10.43
2023-02-06T15:46:30.625Z,6.70
2023-02-06T15:48:58.435Z,6.55
2023-02-06T15:51:48.753Z,5.35
2023-02-06T15:54:17.582Z,7.72
2023-02-06T15:57:38.282Z,5.53
2023-02-06T16:00:27.488Z,5.47
2023-02-06T16:03:31.394Z,6.13
2023-02-06T16:06:16.516Z,6.80
2023-02-06T16:08:51.495Z,5.47
2023-02-06T16:11:36.976Z,5.22
2023-02-06T16:14:33.320Z,6.78
2023-02-06T16:17:13.977Z,7.68
2023-02-06T16:19:47.960Z,6.47
2023-02-06T16:24:44.445Z,8.55
2023-02-06T16:27:33.455Z,8.93
2023-02-06T16:30:00.567Z,8.13
2023-02-06T16:32:32.437Z,11.00
2023-02-06T16:35:01.396Z,10.05
2023-02-06T16:37:30.465Z,7.80
2023-02-06T16:39:57.409Z,5.82
2023-02-06T16:42:35.360Z,7.25
2023-02-06T16:45:08.194Z,7.63
2023-02-06T16:47:35.587Z,9.80
2023-02-06T16:50:02.625Z,7.13
2023-02-06T16:52:33.038Z,7.68
2023-02-06T16:55:01.271Z,8.48
2023-02-06T16:57:55.336Z,7.63
2023-02-06T17:00:56.444Z,7.47
2023-02-06T17:03:57.325Z,6.57
2023-02-06T17:06:58.376Z,8.15
2023-02-06T17:09:38.941Z,7.82
2023-02-06T17:12:06.066Z,10.20
2023-02-06T17:14:53.331Z,6.80
2023-02-06T17:17:33.961Z,7.60
2023-02-06T17:20:00.861Z,7.82
2023-02-06T17:22:30.530Z,8.73
2023-02-06T17:24:57.667Z,6.80
2023-02-06T17:27:45.384Z,9.60
2023-02-06T17:30:26.828Z,7.78
2023-02-06T17:32:54.663Z,7.40
2023-02-06T17:35:22.203Z,10.30
2023-02-06T17:37:49.404Z,10.27
2023-02-06T17:40:19.912Z,10.45
2023-02-06T17:42:47.714Z,8.98
2023-02-06T17:45:15.081Z,9.77
2023-02-06T17:47:42.194Z,9.55
2023-02-06T17:50:13.457Z,11.10
2023-02-06T17:52:40.640Z,10.20
2023-02-06T17:55:27.367Z,10.07
2023-02-06T17:58:22.704Z,9.10
2023-02-06T18:00:50.046Z,9.38
2023-02-06T18:03:37.363Z,8.85
2023-02-06T18:06:38.438Z,9.45
2023-02-06T18:09:19.044Z,9.10
2023-02-06T18:11:46.182Z,11.48
2023-02-06T18:14:33.371Z,10.90
2023-02-06T18:17:13.945Z,8.75
2023-02-06T18:19:42.530Z,9.98
2023-02-06T18:22:11.618Z,9.90
2023-02-06T18:24:38.670Z,10.80
2023-02-06T18:27:26.396Z,10.90
2023-02-06T18:30:08.100Z,10.25
2023-02-06T18:32:55.383Z,10.05
2023-02-06T18:35:40.791Z,11.00
2023-02-06T18:38:09.979Z,9.95
2023-02-06T18:40:42.811Z,12.18
2023-02-06T18:43:09.793Z,13.05
2023-02-06T18:45:38.865Z,11.88
2023-02-06T18:48:09.001Z,10.82
2023-02-06T18:50:39.430Z,12.20
2023-02-06T18:53:06.781Z,11.38
2023-02-06T18:55:53.401Z,10.95
2023-02-06T18:58:34.297Z,13.23
2023-02-06T19:01:01.538Z,11.02
2023-02-06T19:03:48.401Z,8.98
2023-02-06T19:06:34.179Z,10.77
2023-02-06T19:09:02.353Z,9.10
2023-02-06T19:11:29.287Z,9.73
2023-02-06T19:14:17.423Z,10.15
2023-02-06T19:17:18.415Z,10.68
2023-02-06T19:20:08.052Z,10.38
2023-02-06T19:22:36.533Z,9.30
2023-02-06T19:25:25.435Z,11.63
2023-02-06T19:28:06.103Z,11.02
2023-02-06T19:30:33.180Z,10.68
2023-02-06T19:33:00.406Z,9.98
2023-02-06T19:35:28.435Z,9.77
2023-02-06T19:37:55.414Z,9.35
2023-02-06T19:40:22.371Z,10.63
2023-02-06T19:42:49.435Z,10.90
2023-02-06T19:45:16.620Z,9.18
2023-02-06T19:47:43.559Z,10.73
2023-02-06T19:50:13.202Z,10.48
2023-02-06T19:52:41.102Z,10.30
2023-02-06T19:55:28.414Z,9.48
2023-02-06T19:58:23.257Z,10.43
2023-02-06T20:00:50.230Z,10.70
2023-02-06T20:03:37.503Z,12.25
2023-02-06T20:06:41.520Z,11.18
2023-02-06T20:09:43.677Z,11.10
2023-02-06T20:12:24.227Z,11.40
2023-02-06T20:15:13.466Z,12.43
2023-02-06T20:18:14.520Z,10.48
2023-02-06T20:20:55.468Z,12.70
2023-02-06T20:23:22.457Z,10.68
2023-02-06T20:26:09.517Z,11.90
2023-02-06T20:28:50.422Z,12.85
2023-02-06T20:31:37.827Z,13.70
2023-02-06T20:34:29.897Z,12.15
2023-02-06T20:36:58.920Z,15.57
2023-02-06T20:39:27.490Z,12.38
2023-02-06T20:42:14.464Z,14.20
2023-02-06T20:44:55.589Z,12.73
2023-02-06T20:47:22.699Z,14.23
2023-02-06T20:49:49.948Z,14.35
2023-02-06T20:52:17.089Z,13.82
2023-02-06T20:54:44.096Z,13.23
2023-02-06T20:57:43.119Z,16.55
2023-02-06T21:00:40.778Z,13.82
2023-02-06T21:06:38.299Z,14.68
2023-02-06T21:09:34.924Z,12.93
2023-02-06T21:12:37.486Z,15.52
2023-02-06T21:15:21.321Z,13.43
2023-02-06T21:18:00.519Z,12.60
2023-02-06T21:20:48.813Z,15.23
2023-02-06T21:26:35.654Z,15.57
2023-02-06T21:29:10.225Z,16.38
2023-02-06T21:31:55.757Z,18.58
2023-02-06T21:34:28.493Z,14.80
2023-02-06T21:37:30.542Z,15.70
2023-02-06T21:43:54.518Z,13.45
2023-02-06T21:49:46.629Z,15.88
2023-02-06T21:54:58.495Z,15.25
2023-02-06T21:58:12.615Z,16.83
2023-02-06T22:00:58.680Z,18.17
2023-02-06T22:03:50.328Z,16.80
2023-02-06T22:06:41.209Z,18.35
2023-02-06T22:12:28.339Z,18.45
2023-02-06T22:15:31.370Z,16.38
2023-02-06T22:18:18.553Z,13.43
2023-02-06T22:20:50.537Z,16.85
2023-02-06T22:23:30.901Z,14.13
2023-02-06T22:26:28.389Z,20.08
2023-02-06T22:29:23.671Z,13.55
2023-02-06T22:35:36.853Z,14.73
2023-02-06T22:38:39.397Z,13.60
2023-02-06T22:45:03.139Z,14.05
2023-02-06T22:47:33.705Z,12.75
2023-02-06T22:50:09.991Z,14.43
2023-02-06T22:53:24.061Z,13.10
2023-02-06T22:56:46.183Z,11.20
2023-02-06T22:59:53.672Z,11.23
2023-02-06T23:02:52.285Z,15.25
2023-02-06T23:05:43.586Z,15.00
2023-02-06T23:09:05.813Z,10.98
2023-02-06T23:11:52.020Z,15.60
2023-02-06T23:14:22.856Z,10.82
2023-02-06T23:16:58.885Z,14.30
2023-02-06T23:19:38.051Z,13.68
2023-02-06T23:22:27.475Z,14.15
2023-02-06T23:25:15.644Z,12.40
2023-02-06T23:27:52.646Z,13.38
2023-02-06T23:30:41.735Z,11.75
2023-02-06T23:33:16.068Z,8.32
2023-02-06T23:37:01.672Z,10.68
2023-02-06T23:40:29.577Z,9.73
2023-02-06T23:43:36.252Z,12.32
2023-02-06T23:46:10.325Z,9.52
2023-02-06T23:48:54.190Z,9.20
2023-02-06T23:51:34.024Z,10.93
2023-02-06T23:54:03.697Z,9.02
2023-02-06T23:57:00.641Z,11.13
2023-02-06T23:59:49.324Z,13.60
